Strona główna
METAR-TAF:

METAR-TAF

Lotnisko :

Laupheim, Niemcy

Szerokość geograficzna: 48-13N, Długość geograficzna: 009-55E, wysokość: 538 m

Aktualna obserwacja pogody

Raport powstał 1 godzina i 7 minut temu, godzina 01:20 UTC
Wiatr 1 kt z kierunków zmiennych
Temperatura 18°C
Wilgotność 77%
Ciśnienie 1018 hPa
Widzialność: 9000 m

METAR: ETHL 210120Z AUTO VRB01KT 9000 // ////// 18/14 Q1018 ///

czas: 04:27 (02:27 UTC)


TAF: brakujący

Obserwacja i prognoza pogody dla ponad 4000 lotnisk (raport METAR i TAF).

Dostępne stacje oznaczono żółtymi i czerwonymi punktami na mapie.

Najedź kursorem aby zobaczyć nazwę stacji.

Kliknij aby zobaczyć obserwacje i prognozy pogody.

Aby zmienić mapę: kliknij na zielony przycisk z czarnym krzyżykiem, aby powiększyć; na zielony przycisk z myślnikiem, aby pomniejszyć; na zielone strzałki, aby przejść do map sąsiednich.


METAR-TAF: